sensor_id;sensor_type;location;lat;lon;timestamp;pressure;altitude;pressure_sealevel;temperature;humidity
57086;BME280;42964;42.910;23.792;2022-12-13T00:01:50;97265.22;;;-1.00;100.00
57086;BME280;42964;42.910;23.792;2022-12-13T00:06:50;97270.50;;;-1.18;100.00
57086;BME280;42964;42.910;23.792;2022-12-13T00:11:51;97275.78;;;-1.13;100.00
57086;BME280;42964;42.910;23.792;2022-12-13T00:16:51;97275.91;;;-1.33;100.00
57086;BME280;42964;42.910;23.792;2022-12-13T00:21:50;97288.56;;;-1.34;100.00
57086;BME280;42964;42.910;23.792;2022-12-13T00:26:49;97297.34;;;-1.26;100.00
57086;BME280;42964;42.910;23.792;2022-12-13T00:31:48;97310.97;;;-1.26;100.00
57086;BME280;42964;42.910;23.792;2022-12-13T00:36:47;97292.22;;;-1.28;100.00
57086;BME280;42964;42.910;23.792;2022-12-13T00:41:46;97309.84;;;-1.32;100.00
57086;BME280;42964;42.910;23.792;2022-12-13T00:46:45;97296.81;;;-1.40;100.00
57086;BME280;42964;42.910;23.792;2022-12-13T00:51:44;97312.97;;;-1.39;100.00
57086;BME280;42964;42.910;23.792;2022-12-13T00:56:43;97313.53;;;-1.24;100.00
57086;BME280;42964;42.910;23.792;2022-12-13T01:01:42;97295.69;;;-1.26;100.00
57086;BME280;42964;42.910;23.792;2022-12-13T01:06:44;97316.25;;;-1.19;100.00
57086;BME280;42964;42.910;23.792;2022-12-13T01:11:44;97305.84;;;-1.03;100.00
57086;BME280;42964;42.910;23.792;2022-12-13T01:16:43;97301.50;;;-1.06;100.00
57086;BME280;42964;42.910;23.792;2022-12-13T01:21:42;97303.50;;;-1.21;100.00
57086;BME280;42964;42.910;23.792;2022-12-13T01:26:40;97291.63;;;-1.20;100.00
57086;BME280;42964;42.910;23.792;2022-12-13T01:31:39;97303.66;;;-1.16;100.00
57086;BME280;42964;42.910;23.792;2022-12-13T01:36:41;97293.53;;;-1.15;100.00
57086;BME280;42964;42.910;23.792;2022-12-13T01:41:43;97302.78;;;-1.17;100.00
57086;BME280;42964;42.910;23.792;2022-12-13T01:46:42;97310.59;;;-1.12;100.00
57086;BME280;42964;42.910;23.792;2022-12-13T01:51:54;97312.28;;;-1.13;100.00
57086;BME280;42964;42.910;23.792;2022-12-13T01:56:54;97320.56;;;-1.18;100.00
57086;BME280;42964;42.910;23.792;2022-12-13T02:01:54;97324.06;;;-1.15;100.00
57086;BME280;42964;42.910;23.792;2022-12-13T02:06:54;97329.56;;;-1.27;100.00
57086;BME280;42964;42.910;23.792;2022-12-13T02:11:54;97320.13;;;-1.29;100.00
57086;BME280;42964;42.910;23.792;2022-12-13T02:17:16;97332.34;;;-1.43;100.00
57086;BME280;42964;42.910;23.792;2022-12-13T02:43:28;97348.75;;;-1.57;100.00
57086;BME280;42964;42.910;23.792;2022-12-13T02:48:36;97354.56;;;-1.60;100.00
57086;BME280;42964;42.910;23.792;2022-12-13T02:53:39;97352.31;;;-1.75;100.00
57086;BME280;42964;42.910;23.792;2022-12-13T02:58:47;97362.47;;;-1.75;100.00
57086;BME280;42964;42.910;23.792;2022-12-13T03:03:57;97351.47;;;-1.95;100.00
57086;BME280;42964;42.910;23.792;2022-12-13T03:14:11;97355.69;;;-1.95;100.00
57086;BME280;42964;42.910;23.792;2022-12-13T03:19:11;97360.50;;;-2.01;99.68
57086;BME280;42964;42.910;23.792;2022-12-13T03:24:11;97355.31;;;-2.04;98.51
57086;BME280;42964;42.910;23.792;2022-12-13T03:29:11;97360.09;;;-2.12;99.79
57086;BME280;42964;42.910;23.792;2022-12-13T03:34:10;97357.34;;;-2.17;98.58
57086;BME280;42964;42.910;23.792;2022-12-13T03:39:09;97367.06;;;-2.28;98.61
57086;BME280;42964;42.910;23.792;2022-12-13T03:44:08;97360.44;;;-2.24;98.76
57086;BME280;42964;42.910;23.792;2022-12-13T03:49:07;97357.63;;;-2.30;98.33
57086;BME280;42964;42.910;23.792;2022-12-13T03:54:06;97353.72;;;-2.22;98.15
57086;BME280;42964;42.910;23.792;2022-12-13T03:59:05;97366.59;;;-2.19;98.18
57086;BME280;42964;42.910;23.792;2022-12-13T04:04:04;97360.56;;;-2.21;98.30
57086;BME280;42964;42.910;23.792;2022-12-13T04:09:03;97368.09;;;-2.22;97.83
57086;BME280;42964;42.910;23.792;2022-12-13T04:14:02;97381.41;;;-2.09;98.89
57086;BME280;42964;42.910;23.792;2022-12-13T04:19:01;97382.47;;;-2.03;98.45
57086;BME280;42964;42.910;23.792;2022-12-13T04:24:00;97379.56;;;-1.92;98.83
57086;BME280;42964;42.910;23.792;2022-12-13T04:28:58;97400.72;;;-1.93;98.80
57086;BME280;42964;42.910;23.792;2022-12-13T04:33:57;97398.50;;;-1.85;99.00
57086;BME280;42964;42.910;23.792;2022-12-13T04:38:56;97404.31;;;-1.88;98.93
57086;BME280;42964;42.910;23.792;2022-12-13T04:43:55;97401.69;;;-1.89;98.88
57086;BME280;42964;42.910;23.792;2022-12-13T04:48:54;97415.22;;;-1.90;98.47
57086;BME280;42964;42.910;23.792;2022-12-13T04:53:53;97415.50;;;-1.84;98.91
57086;BME280;42964;42.910;23.792;2022-12-13T04:58:52;97425.91;;;-1.78;99.40
57086;BME280;42964;42.910;23.792;2022-12-13T05:03:52;97435.56;;;-1.90;98.42
57086;BME280;42964;42.910;23.792;2022-12-13T05:08:50;97427.00;;;-1.92;98.78
57086;BME280;42964;42.910;23.792;2022-12-13T05:13:49;97437.94;;;-1.95;99.15
57086;BME280;42964;42.910;23.792;2022-12-13T05:18:48;97438.19;;;-1.89;99.15
57086;BME280;42964;42.910;23.792;2022-12-13T05:23:47;97446.34;;;-1.76;99.37
57086;BME280;42964;42.910;23.792;2022-12-13T05:28:46;97444.88;;;-1.91;98.75
57086;BME280;42964;42.910;23.792;2022-12-13T05:33:45;97449.50;;;-1.82;99.13
57086;BME280;42964;42.910;23.792;2022-12-13T05:38:44;97450.59;;;-1.75;98.98
57086;BME280;42964;42.910;23.792;2022-12-13T05:43:43;97455.03;;;-1.71;99.11
57086;BME280;42964;42.910;23.792;2022-12-13T05:48:42;97454.94;;;-1.73;98.13
57086;BME280;42964;42.910;23.792;2022-12-13T05:53:41;97467.16;;;-1.85;97.99
57086;BME280;42964;42.910;23.792;2022-12-13T05:58:40;97484.72;;;-1.91;97.40
57086;BME280;42964;42.910;23.792;2022-12-13T06:03:40;97492.34;;;-1.91;97.40
57086;BME280;42964;42.910;23.792;2022-12-13T06:08:40;97489.72;;;-1.93;97.32
57086;BME280;42964;42.910;23.792;2022-12-13T06:13:40;97485.78;;;-1.86;97.87
57086;BME280;42964;42.910;23.792;2022-12-13T06:18:39;97492.97;;;-1.76;96.93
57086;BME280;42964;42.910;23.792;2022-12-13T06:23:38;97486.59;;;-1.66;97.84
57086;BME280;42964;42.910;23.792;2022-12-13T06:28:37;97484.75;;;-1.70;97.02
57086;BME280;42964;42.910;23.792;2022-12-13T06:33:36;97502.69;;;-1.67;97.50
57086;BME280;42964;42.910;23.792;2022-12-13T06:38:36;97493.09;;;-1.53;97.66
57086;BME280;42964;42.910;23.792;2022-12-13T06:43:35;97501.50;;;-1.35;97.87
57086;BME280;42964;42.910;23.792;2022-12-13T06:48:34;97512.09;;;-1.45;96.67
57086;BME280;42964;42.910;23.792;2022-12-13T06:53:35;97507.25;;;-1.39;97.46
57086;BME280;42964;42.910;23.792;2022-12-13T06:58:35;97509.56;;;-1.24;98.15
57086;BME280;42964;42.910;23.792;2022-12-13T07:03:34;97522.19;;;-1.06;98.68
57086;BME280;42964;42.910;23.792;2022-12-13T07:08:34;97520.69;;;-1.01;96.87
57086;BME280;42964;42.910;23.792;2022-12-13T07:13:33;97527.66;;;-0.97;97.49
57086;BME280;42964;42.910;23.792;2022-12-13T07:18:32;97537.72;;;-1.00;95.87
57086;BME280;42964;42.910;23.792;2022-12-13T07:23:33;97522.94;;;-1.09;95.30
57086;BME280;42964;42.910;23.792;2022-12-13T07:28:35;97525.97;;;-0.96;96.12
57086;BME280;42964;42.910;23.792;2022-12-13T07:33:35;97524.25;;;-0.97;94.13
57086;BME280;42964;42.910;23.792;2022-12-13T07:38:35;97533.22;;;-1.06;92.47
57086;BME280;42964;42.910;23.792;2022-12-13T07:43:35;97541.88;;;-1.02;92.69
57086;BME280;42964;42.910;23.792;2022-12-13T07:48:34;97538.56;;;-0.78;94.65
57086;BME280;42964;42.910;23.792;2022-12-13T07:53:33;97543.50;;;-1.04;89.06
57086;BME280;42964;42.910;23.792;2022-12-13T07:58:33;97555.25;;;-1.27;90.40
57086;BME280;42964;42.910;23.792;2022-12-13T08:03:32;97560.44;;;-1.45;88.85
57086;BME280;42964;42.910;23.792;2022-12-13T08:08:31;97561.22;;;-1.27;91.35
57086;BME280;42964;42.910;23.792;2022-12-13T08:13:31;97558.13;;;-0.98;92.80
57086;BME280;42964;42.910;23.792;2022-12-13T08:18:30;97558.13;;;-0.77;92.53
57086;BME280;42964;42.910;23.792;2022-12-13T08:23:31;97558.00;;;-0.60;93.75
57086;BME280;42964;42.910;23.792;2022-12-13T08:28:32;97566.88;;;-0.50;92.74
57086;BME280;42964;42.910;23.792;2022-12-13T08:33:33;97568.94;;;-0.62;90.91
57086;BME280;42964;42.910;23.792;2022-12-13T08:38:32;97569.53;;;-0.47;92.85
57086;BME280;42964;42.910;23.792;2022-12-13T08:43:31;97561.63;;;-0.32;91.39
57086;BME280;42964;42.910;23.792;2022-12-13T08:48:30;97561.75;;;-0.29;91.96
57086;BME280;42964;42.910;23.792;2022-12-13T08:53:29;97546.44;;;-0.29;90.48
57086;BME280;42964;42.910;23.792;2022-12-13T08:58:28;97530.25;;;-0.07;92.00
57086;BME280;42964;42.910;23.792;2022-12-13T09:03:27;97532.41;;;0.29;88.34
57086;BME280;42964;42.910;23.792;2022-12-13T09:08:26;97537.72;;;0.11;86.43
57086;BME280;42964;42.910;23.792;2022-12-13T09:13:30;97538.84;;;-0.05;86.02
57086;BME280;42964;42.910;23.792;2022-12-13T09:18:29;97528.59;;;-0.29;86.11
57086;BME280;42964;42.910;23.792;2022-12-13T09:23:28;97514.69;;;-0.14;85.32
57086;BME280;42964;42.910;23.792;2022-12-13T09:28:27;97516.19;;;-0.42;86.22
57086;BME280;42964;42.910;23.792;2022-12-13T09:33:29;97510.56;;;-0.33;85.93
57086;BME280;42964;42.910;23.792;2022-12-13T09:38:29;97506.00;;;-0.65;83.69
57086;BME280;42964;42.910;23.792;2022-12-13T09:43:32;97492.03;;;-0.52;87.02
57086;BME280;42964;42.910;23.792;2022-12-13T09:48:31;97495.44;;;-0.74;84.35
57086;BME280;42964;42.910;23.792;2022-12-13T09:53:31;97486.59;;;-0.84;86.46
57086;BME280;42964;42.910;23.792;2022-12-13T09:58:30;97475.69;;;-0.80;86.87
57086;BME280;42964;42.910;23.792;2022-12-13T10:03:29;97483.56;;;-0.73;86.89
57086;BME280;42964;42.910;23.792;2022-12-13T10:08:38;97478.53;;;-0.72;86.77
57086;BME280;42964;42.910;23.792;2022-12-13T10:13:42;97471.50;;;-1.00;80.45
57086;BME280;42964;42.910;23.792;2022-12-13T10:18:43;97462.25;;;-0.75;87.49
57086;BME280;42964;42.910;23.792;2022-12-13T10:23:42;97454.13;;;-0.65;87.50
57086;BME280;42964;42.910;23.792;2022-12-13T10:28:41;97457.44;;;-0.45;84.96
57086;BME280;42964;42.910;23.792;2022-12-13T10:33:53;97447.16;;;-0.48;84.97
57086;BME280;42964;42.910;23.792;2022-12-13T10:38:53;97427.75;;;-0.67;83.63
57086;BME280;42964;42.910;23.792;2022-12-13T10:49:23;97427.97;;;-0.39;87.38
57086;BME280;42964;42.910;23.792;2022-12-13T10:54:29;97421.69;;;-0.24;88.50
57086;BME280;42964;42.910;23.792;2022-12-13T10:59:37;97409.41;;;-0.34;83.59
57086;BME280;42964;42.910;23.792;2022-12-13T11:04:36;97397.19;;;-0.19;87.01
57086;BME280;42964;42.910;23.792;2022-12-13T11:09:35;97409.06;;;0.04;88.26
57086;BME280;42964;42.910;23.792;2022-12-13T11:14:36;97397.72;;;0.20;87.86
57086;BME280;42964;42.910;23.792;2022-12-13T11:19:57;97395.50;;;0.05;85.68
57086;BME280;42964;42.910;23.792;2022-12-13T11:25:07;97391.47;;;0.12;87.21
57086;BME280;42964;42.910;23.792;2022-12-13T11:40:22;97369.38;;;-0.13;82.90
57086;BME280;42964;42.910;23.792;2022-12-13T11:45:29;97369.25;;;-0.16;82.56
57086;BME280;42964;42.910;23.792;2022-12-13T11:50:50;97351.53;;;-0.13;84.07
57086;BME280;42964;42.910;23.792;2022-12-13T11:56:04;97368.81;;;-0.04;83.01
57086;BME280;42964;42.910;23.792;2022-12-13T12:01:12;97370.56;;;-0.03;82.53
57086;BME280;42964;42.910;23.792;2022-12-13T12:06:19;97354.53;;;0.01;82.74
57086;BME280;42964;42.910;23.792;2022-12-13T12:16:50;97348.06;;;0.36;85.79
57086;BME280;42964;42.910;23.792;2022-12-13T12:38:11;97356.31;;;0.55;84.31
57086;BME280;42964;42.910;23.792;2022-12-13T13:03:49;97360.44;;;0.51;84.72
57086;BME280;42964;42.910;23.792;2022-12-13T13:08:54;97344.28;;;0.52;84.45
57086;BME280;42964;42.910;23.792;2022-12-13T13:18:57;97370.44;;;0.72;86.03
57086;BME280;42964;42.910;23.792;2022-12-13T13:34:38;97377.41;;;0.76;86.52
57086;BME280;42964;42.910;23.792;2022-12-13T13:45:01;97415.00;;;0.80;87.52
57086;BME280;42964;42.910;23.792;2022-12-13T14:27:25;97387.72;;;0.01;90.50
57086;BME280;42964;42.910;23.792;2022-12-13T14:32:30;97389.88;;;-0.10;90.58
57086;BME280;42964;42.910;23.792;2022-12-13T14:37:34;97409.94;;;-0.19;91.13
57086;BME280;42964;42.910;23.792;2022-12-13T14:42:35;97414.81;;;-0.25;91.28
57086;BME280;42964;42.910;23.792;2022-12-13T14:47:35;97407.56;;;-0.39;91.58
57086;BME280;42964;42.910;23.792;2022-12-13T14:52:37;97400.28;;;-0.52;91.95
57086;BME280;42964;42.910;23.792;2022-12-13T14:57:37;97393.91;;;-0.63;92.19
57086;BME280;42964;42.910;23.792;2022-12-13T15:02:36;97389.94;;;-0.79;93.46
57086;BME280;42964;42.910;23.792;2022-12-13T15:07:39;97390.56;;;-0.85;93.67
57086;BME280;42964;42.910;23.792;2022-12-13T15:12:40;97405.63;;;-0.91;94.00
57086;BME280;42964;42.910;23.792;2022-12-13T15:17:40;97409.56;;;-0.99;93.97
57086;BME280;42964;42.910;23.792;2022-12-13T15:22:40;97420.91;;;-1.13;94.82
57086;BME280;42964;42.910;23.792;2022-12-13T15:27:39;97444.31;;;-1.22;95.31
57086;BME280;42964;42.910;23.792;2022-12-13T15:33:17;97440.63;;;-1.29;94.95
57086;BME280;42964;42.910;23.792;2022-12-13T15:38:18;97459.03;;;-1.36;94.97
57086;BME280;42964;42.910;23.792;2022-12-13T15:43:21;97439.09;;;-1.46;95.66
57086;BME280;42964;42.910;23.792;2022-12-13T15:48:30;97445.06;;;-1.46;95.64
57086;BME280;42964;42.910;23.792;2022-12-13T15:53:30;97430.22;;;-1.56;95.38
57086;BME280;42964;42.910;23.792;2022-12-13T15:58:35;97447.31;;;-1.53;96.22
57086;BME280;42964;42.910;23.792;2022-12-13T16:03:40;97437.72;;;-1.59;96.33
57086;BME280;42964;42.910;23.792;2022-12-13T16:08:40;97448.63;;;-1.61;95.75
57086;BME280;42964;42.910;23.792;2022-12-13T16:13:39;97450.06;;;-1.68;95.76
57086;BME280;42964;42.910;23.792;2022-12-13T16:18:44;97451.69;;;-1.70;96.33
57086;BME280;42964;42.910;23.792;2022-12-13T16:23:43;97448.13;;;-1.74;96.71
57086;BME280;42964;42.910;23.792;2022-12-13T16:28:42;97459.41;;;-1.88;96.69
57086;BME280;42964;42.910;23.792;2022-12-13T16:33:41;97455.44;;;-2.01;98.15
57086;BME280;42964;42.910;23.792;2022-12-13T16:38:40;97448.56;;;-2.03;97.34
57086;BME280;42964;42.910;23.792;2022-12-13T16:43:50;97442.34;;;-2.10;97.34
57086;BME280;42964;42.910;23.792;2022-12-13T16:48:51;97434.72;;;-2.10;97.72
57086;BME280;42964;42.910;23.792;2022-12-13T16:53:50;97446.72;;;-2.08;97.93
57086;BME280;42964;42.910;23.792;2022-12-13T16:58:49;97446.75;;;-2.06;97.75
57086;BME280;42964;42.910;23.792;2022-12-13T17:03:48;97436.78;;;-2.01;97.97
57086;BME280;42964;42.910;23.792;2022-12-13T17:08:47;97445.22;;;-2.02;98.12
57086;BME280;42964;42.910;23.792;2022-12-13T17:13:46;97456.28;;;-2.02;98.46
57086;BME280;42964;42.910;23.792;2022-12-13T17:18:47;97457.22;;;-2.00;98.19
57086;BME280;42964;42.910;23.792;2022-12-13T17:23:47;97470.78;;;-1.99;98.64
57086;BME280;42964;42.910;23.792;2022-12-13T17:28:46;97464.63;;;-2.04;98.21
57086;BME280;42964;42.910;23.792;2022-12-13T17:33:46;97457.00;;;-2.04;98.43
57086;BME280;42964;42.910;23.792;2022-12-13T17:38:46;97462.44;;;-2.16;98.13
57086;BME280;42964;42.910;23.792;2022-12-13T17:43:45;97459.69;;;-2.21;98.16
57086;BME280;42964;42.910;23.792;2022-12-13T17:48:44;97453.50;;;-2.45;99.56
57086;BME280;42964;42.910;23.792;2022-12-13T17:53:43;97439.00;;;-2.48;99.68
57086;BME280;42964;42.910;23.792;2022-12-13T17:58:42;97444.22;;;-2.45;99.27
57086;BME280;42964;42.910;23.792;2022-12-13T18:03:42;97446.81;;;-2.43;99.23
57086;BME280;42964;42.910;23.792;2022-12-13T18:08:41;97447.50;;;-2.47;99.37
57086;BME280;42964;42.910;23.792;2022-12-13T18:13:42;97442.72;;;-2.59;99.45
57086;BME280;42964;42.910;23.792;2022-12-13T18:18:41;97458.03;;;-2.58;99.21
57086;BME280;42964;42.910;23.792;2022-12-13T18:23:40;97455.94;;;-2.66;99.34
57086;BME280;42964;42.910;23.792;2022-12-13T18:28:39;97460.03;;;-2.70;99.05
57086;BME280;42964;42.910;23.792;2022-12-13T18:33:39;97471.13;;;-2.68;99.10
57086;BME280;42964;42.910;23.792;2022-12-13T18:38:38;97475.47;;;-2.65;99.47
57086;BME280;42964;42.910;23.792;2022-12-13T18:43:37;97467.94;;;-2.64;99.68
57086;BME280;42964;42.910;23.792;2022-12-13T18:48:36;97465.44;;;-2.62;99.27
57086;BME280;42964;42.910;23.792;2022-12-13T18:53:35;97471.38;;;-2.62;99.31
57086;BME280;42964;42.910;23.792;2022-12-13T18:58:36;97478.34;;;-2.58;99.49
57086;BME280;42964;42.910;23.792;2022-12-13T19:03:36;97466.72;;;-2.53;99.70
57086;BME280;42964;42.910;23.792;2022-12-13T19:08:35;97480.66;;;-2.44;100.00
57086;BME280;42964;42.910;23.792;2022-12-13T19:13:34;97484.63;;;-2.32;99.58
57086;BME280;42964;42.910;23.792;2022-12-13T19:18:33;97481.63;;;-2.23;100.00
57086;BME280;42964;42.910;23.792;2022-12-13T19:23:33;97473.75;;;-2.10;100.00
57086;BME280;42964;42.910;23.792;2022-12-13T19:28:33;97468.31;;;-1.98;100.00
57086;BME280;42964;42.910;23.792;2022-12-13T19:33:32;97461.88;;;-1.90;100.00
57086;BME280;42964;42.910;23.792;2022-12-13T19:38:31;97468.28;;;-1.78;99.45
57086;BME280;42964;42.910;23.792;2022-12-13T19:43:30;97454.88;;;-1.95;100.00
57086;BME280;42964;42.910;23.792;2022-12-13T19:48:30;97469.97;;;-1.79;100.00
57086;BME280;42964;42.910;23.792;2022-12-13T19:53:30;97461.53;;;-1.78;100.00
57086;BME280;42964;42.910;23.792;2022-12-13T19:58:29;97463.53;;;-1.71;100.00
57086;BME280;42964;42.910;23.792;2022-12-13T20:03:35;97458.59;;;-1.68;100.00
57086;BME280;42964;42.910;23.792;2022-12-13T20:08:35;97477.72;;;-1.76;99.54
57086;BME280;42964;42.910;23.792;2022-12-13T20:13:34;97474.13;;;-1.81;100.00
57086;BME280;42964;42.910;23.792;2022-12-13T20:18:33;97475.81;;;-1.81;99.64
57086;BME280;42964;42.910;23.792;2022-12-13T20:23:34;97475.06;;;-1.79;99.96
57086;BME280;42964;42.910;23.792;2022-12-13T20:28:33;97480.25;;;-1.76;99.70
57086;BME280;42964;42.910;23.792;2022-12-13T20:33:32;97488.84;;;-1.74;100.00
57086;BME280;42964;42.910;23.792;2022-12-13T20:38:32;97477.84;;;-1.73;99.97
57086;BME280;42964;42.910;23.792;2022-12-13T20:43:32;97470.09;;;-1.76;100.00
57086;BME280;42964;42.910;23.792;2022-12-13T20:48:42;97469.84;;;-1.82;100.00
57086;BME280;42964;42.910;23.792;2022-12-13T20:53:44;97462.34;;;-1.79;100.00
57086;BME280;42964;42.910;23.792;2022-12-13T20:58:44;97466.59;;;-1.78;100.00
57086;BME280;42964;42.910;23.792;2022-12-13T21:03:43;97468.59;;;-1.71;99.81
57086;BME280;42964;42.910;23.792;2022-12-13T21:08:42;97453.88;;;-1.58;100.00
57086;BME280;42964;42.910;23.792;2022-12-13T21:18:54;97462.56;;;-1.73;99.67
57086;BME280;42964;42.910;23.792;2022-12-13T21:23:54;97470.38;;;-1.70;99.91
57086;BME280;42964;42.910;23.792;2022-12-13T21:28:55;97455.84;;;-1.72;99.99
57086;BME280;42964;42.910;23.792;2022-12-13T21:33:56;97451.06;;;-1.65;99.91
57086;BME280;42964;42.910;23.792;2022-12-13T21:38:58;97438.16;;;-1.69;99.61
57086;BME280;42964;42.910;23.792;2022-12-13T21:43:58;97458.06;;;-1.59;99.53
57086;BME280;42964;42.910;23.792;2022-12-13T21:48:58;97456.28;;;-1.61;98.82
57086;BME280;42964;42.910;23.792;2022-12-13T21:53:58;97454.28;;;-1.69;98.65
57086;BME280;42964;42.910;23.792;2022-12-13T21:58:57;97473.69;;;-1.71;98.84
57086;BME280;42964;42.910;23.792;2022-12-13T22:04:15;97458.31;;;-1.74;99.17
57086;BME280;42964;42.910;23.792;2022-12-13T22:09:15;97472.41;;;-1.61;100.00
57086;BME280;42964;42.910;23.792;2022-12-13T22:14:13;97480.22;;;-1.56;98.90
57086;BME280;42964;42.910;23.792;2022-12-13T22:19:14;97475.13;;;-1.56;98.98
57086;BME280;42964;42.910;23.792;2022-12-13T22:24:13;97468.75;;;-1.68;98.74
57086;BME280;42964;42.910;23.792;2022-12-13T22:29:12;97466.41;;;-1.63;99.04
57086;BME280;42964;42.910;23.792;2022-12-13T22:34:11;97464.16;;;-1.55;98.60
57086;BME280;42964;42.910;23.792;2022-12-13T22:39:15;97457.66;;;-1.49;99.07
57086;BME280;42964;42.910;23.792;2022-12-13T22:44:15;97470.59;;;-1.44;98.60
57086;BME280;42964;42.910;23.792;2022-12-13T22:49:15;97455.50;;;-1.39;98.62
57086;BME280;42964;42.910;23.792;2022-12-13T22:54:14;97455.69;;;-1.35;98.91
57086;BME280;42964;42.910;23.792;2022-12-13T22:59:13;97460.13;;;-1.50;99.12
57086;BME280;42964;42.910;23.792;2022-12-13T23:04:12;97469.00;;;-1.61;99.03
57086;BME280;42964;42.910;23.792;2022-12-13T23:09:12;97469.81;;;-1.62;99.31
57086;BME280;42964;42.910;23.792;2022-12-13T23:14:14;97481.72;;;-1.61;99.42
57086;BME280;42964;42.910;23.792;2022-12-13T23:19:14;97475.03;;;-1.59;99.04
57086;BME280;42964;42.910;23.792;2022-12-13T23:24:14;97480.09;;;-1.59;98.99
57086;BME280;42964;42.910;23.792;2022-12-13T23:29:13;97470.38;;;-1.49;98.75
57086;BME280;42964;42.910;23.792;2022-12-13T23:34:12;97469.94;;;-1.38;99.57
57086;BME280;42964;42.910;23.792;2022-12-13T23:39:11;97475.59;;;-1.25;98.97
57086;BME280;42964;42.910;23.792;2022-12-13T23:44:10;97470.50;;;-1.25;98.96
57086;BME280;42964;42.910;23.792;2022-12-13T23:49:09;97449.78;;;-1.34;98.52
57086;BME280;42964;42.910;23.792;2022-12-13T23:54:09;97473.81;;;-1.27;98.41
57086;BME280;42964;42.910;23.792;2022-12-13T23:59:12;97464.19;;;-1.34;98.65
